Time;durP1;ratioP1;P1;durP2;ratioP2;P2;SDS_P1;SDS_P2;PMS_P1;PMS_P2;Temp;Humidity;BMP_temperature;BMP_pressure;BME280_temperature;BME280_humidity;BME280_pressure;Samples;Min_cycle;Max_cycle;Signal;HPM_P1;HPM_P2
2021/08/17 00:01:21;;;;;;;;;;;;;;;36.91;13.90;94260.06;5094146;28;19931;-55
2021/08/17 00:03:47;;;;;;;;;;;;;;;36.74;14.14;94260.41;5092135;28;19931;-54
2021/08/17 00:06:14;;;;;;;;;;;;;;;36.61;14.58;94259.81;5092047;28;19924;-54
2021/08/17 00:08:41;;;;;;;;;;;;;;;36.50;14.24;94256.06;5092091;28;19931;-56
2021/08/17 00:11:08;;;;;;;;;;;;;;;36.79;14.14;94250.13;5090961;28;19916;-55
2021/08/17 00:13:35;;;;;;;;;;;;;;;36.45;14.00;94260.16;5095287;28;19946;-58
2021/08/17 00:16:01;;;;;;;;;;;;;;;36.12;14.69;94255.28;5091886;28;19931;-58
2021/08/17 00:18:28;;;;;;;;;;;;;;;36.13;14.81;94256.78;5091782;28;19927;-55
2021/08/17 00:20:55;;;;;;;;;;;;;;;36.60;14.22;94268.44;5075727;28;19923;-54
2021/08/17 00:23:22;;;;;;;;;;;;;;;36.34;15.20;94259.84;5086430;28;20261;-58
2021/08/17 00:25:49;;;;;;;;;;;;;;;35.90;15.22;94264.78;5091457;28;19991;-55
2021/08/17 00:28:16;;;;;;;;;;;;;;;36.08;14.91;94251.97;5091586;28;19920;-55
2021/08/17 00:30:42;;;;;;;;;;;;;;;36.21;15.07;94253.78;5091599;28;19920;-58
2021/08/17 00:33:09;;;;;;;;;;;;;;;35.98;14.97;94249.69;5090914;28;20211;-56
2021/08/17 00:35:36;;;;;;;;;;;;;;;36.30;14.84;94248.34;5091463;28;19928;-57
2021/08/17 00:38:04;;;;;;;;;;;;;;;36.33;14.44;94253.66;5092110;28;20264;-58
2021/08/17 00:40:31;;;;;;;;;;;;;;;36.25;14.58;94252.41;5091463;28;19919;-56
2021/08/17 00:42:58;;;;;;;;;;;;;;;36.42;14.27;94255.59;5090972;28;19920;-59
2021/08/17 00:45:26;;;;;;;;;;;;;;;36.32;14.36;94246.69;5091483;28;19921;-57
2021/08/17 00:47:53;;;;;;;;;;;;;;;36.11;14.70;94239.41;5091482;28;20357;-55
2021/08/17 00:50:21;;;;;;;;;;;;;;;36.20;14.06;94249.56;5090668;28;19920;-56
2021/08/17 00:52:49;;;;;;;;;;;;;;;36.10;14.61;94252.25;5092876;28;19920;-56
2021/08/17 00:55:17;;;;;;;;;;;;;;;36.27;14.09;94250.00;5092798;28;20378;-55
2021/08/17 00:57:44;;;;;;;;;;;;;;;36.21;13.71;94246.38;5093476;28;19931;-54
2021/08/17 01:00:11;;;;;;;;;;;;;;;36.19;14.06;94243.38;5091442;28;19920;-59
2021/08/17 01:02:38;;;;;;;;;;;;;;;36.34;14.06;94235.34;5094525;28;19920;-60
2021/08/17 01:05:05;;;;;;;;;;;;;;;36.56;14.01;94251.50;5095011;28;20330;-55
2021/08/17 01:07:32;;;;;;;;;;;;;;;36.46;14.36;94245.34;5095795;28;19920;-56
2021/08/17 01:09:59;;;;;;;;;;;;;;;36.35;14.44;94245.03;5098013;28;19923;-56
2021/08/17 01:12:26;;;;;;;;;;;;;;;36.37;14.38;94248.03;5097288;28;20537;-55
2021/08/17 01:14:53;;;;;;;;;;;;;;;36.55;14.18;94247.28;5095180;28;19939;-56
2021/08/17 01:17:20;;;;;;;;;;;;;;;36.67;13.81;94252.53;5095363;28;19927;-57
2021/08/17 01:19:48;;;;;;;;;;;;;;;36.68;14.00;94250.56;5095186;28;19927;-55
2021/08/17 01:22:14;;;;;;;;;;;;;;;36.56;14.31;94246.81;5112909;28;19919;-59
2021/08/17 01:24:41;;;;;;;;;;;;;;;36.04;14.63;94245.91;5100256;28;19927;-54
2021/08/17 01:27:11;;;;;;;;;;;;;;;35.96;15.12;94252.13;5117833;28;19916;-55
2021/08/17 01:29:39;;;;;;;;;;;;;;;35.95;14.89;94245.94;5115242;28;19927;-57
2021/08/17 01:32:06;;;;;;;;;;;;;;;35.69;15.40;94244.66;5109135;28;19950;-56
2021/08/17 01:34:34;;;;;;;;;;;;;;;35.62;15.35;94255.81;5114787;28;19923;-55
2021/08/17 01:37:01;;;;;;;;;;;;;;;35.40;15.55;94245.81;5090604;28;19928;-55
2021/08/17 01:39:28;;;;;;;;;;;;;;;35.73;15.51;94248.00;5076707;28;19917;-58
2021/08/17 01:41:55;;;;;;;;;;;;;;;35.62;15.48;94255.81;5080416;28;20230;-57
2021/08/17 01:44:22;;;;;;;;;;;;;;;35.14;15.98;94249.94;5114311;28;20336;-57
2021/08/17 01:46:49;;;;;;;;;;;;;;;35.55;15.55;94256.84;5114591;28;19994;-54
2021/08/17 01:49:16;;;;;;;;;;;;;;;35.35;15.73;94259.22;5114496;28;19919;-58
2021/08/17 01:51:43;;;;;;;;;;;;;;;35.53;15.63;94254.59;5115447;28;19920;-55
2021/08/17 01:54:12;;;;;;;;;;;;;;;35.12;15.72;94257.75;5111356;28;19924;-56
2021/08/17 01:56:39;;;;;;;;;;;;;;;35.64;15.35;94248.72;5116721;28;19926;-59
2021/08/17 01:59:06;;;;;;;;;;;;;;;35.43;15.63;94249.59;5115363;28;19920;-56
2021/08/17 02:01:33;;;;;;;;;;;;;;;35.76;15.20;94249.81;5092965;28;19920;-57
2021/08/17 02:04:00;;;;;;;;;;;;;;;35.45;15.78;94239.78;5108822;28;19924;-57
2021/08/17 02:06:28;;;;;;;;;;;;;;;35.29;15.91;94240.00;5093402;28;20299;-58
2021/08/17 02:08:54;;;;;;;;;;;;;;;35.34;15.74;94238.69;5096198;28;20588;-57
2021/08/17 02:11:22;;;;;;;;;;;;;;;35.05;16.08;94241.72;5096489;28;19931;-56
2021/08/17 02:13:49;;;;;;;;;;;;;;;34.78;16.34;94234.19;5106509;28;19928;-56
2021/08/17 02:16:16;;;;;;;;;;;;;;;34.84;16.16;94238.63;5096314;28;19931;-57
2021/08/17 02:18:43;;;;;;;;;;;;;;;35.18;15.91;94236.97;5096178;28;20302;-56
2021/08/17 02:21:09;;;;;;;;;;;;;;;34.75;15.89;94237.78;5094088;28;19920;-55
2021/08/17 02:23:38;;;;;;;;;;;;;;;34.58;15.85;94248.09;5076443;28;19931;-56
2021/08/17 02:26:05;;;;;;;;;;;;;;;34.77;15.42;94244.28;5116036;28;19923;-60
2021/08/17 02:28:32;;;;;;;;;;;;;;;34.92;15.67;94244.56;5113685;28;20257;-56
2021/08/17 02:30:59;;;;;;;;;;;;;;;35.08;15.55;94243.53;5115235;28;20364;-56
2021/08/17 02:33:26;;;;;;;;;;;;;;;34.88;15.69;94244.69;5112603;28;19926;-55
2021/08/17 02:35:53;;;;;;;;;;;;;;;35.14;15.78;94247.22;5094026;28;19924;-58
2021/08/17 02:38:19;;;;;;;;;;;;;;;34.93;15.73;94243.34;5114646;28;19920;-56
2021/08/17 02:40:46;;;;;;;;;;;;;;;35.06;15.66;94244.00;5114972;28;19919;-56
2021/08/17 02:43:13;;;;;;;;;;;;;;;34.97;15.80;94246.69;5114249;28;19926;-55
2021/08/17 02:45:40;;;;;;;;;;;;;;;34.99;15.73;94244.28;5095971;28;20354;-56
2021/08/17 02:48:07;;;;;;;;;;;;;;;34.74;15.81;94253.31;5094138;28;20265;-55
2021/08/17 02:50:34;;;;;;;;;;;;;;;34.86;15.99;94249.03;5113329;28;19923;-55
2021/08/17 02:53:00;;;;;;;;;;;;;;;34.86;16.22;94247.06;5115072;28;20290;-55
2021/08/17 02:55:27;;;;;;;;;;;;;;;34.85;16.25;94248.28;5116322;28;19920;-57
2021/08/17 02:57:59;;;;;;;;;;;;;;;34.75;16.08;94246.69;5114458;28;20266;-57
2021/08/17 03:00:26;;;;;;;;;;;;;;;34.63;16.46;94239.41;5113115;28;19930;-57
2021/08/17 03:02:53;;;;;;;;;;;;;;;34.89;16.12;94240.00;5112370;28;19923;-59
2021/08/17 03:05:20;;;;;;;;;;;;;;;34.53;16.42;94243.25;5098726;28;19927;-55
2021/08/17 03:07:47;;;;;;;;;;;;;;;34.90;16.27;94236.84;5094225;28;20349;-56
2021/08/17 03:10:14;;;;;;;;;;;;;;;35.43;16.19;94239.47;5093593;28;20335;-54
2021/08/17 03:12:41;;;;;;;;;;;;;;;35.67;15.56;94241.66;5096422;28;19927;-56
2021/08/17 03:15:08;;;;;;;;;;;;;;;35.36;16.04;94242.47;5111597;28;19939;-53
2021/08/17 03:17:37;;;;;;;;;;;;;;;35.13;16.39;94234.81;5112277;28;19928;-55
2021/08/17 03:20:05;;;;;;;;;;;;;;;35.49;16.08;94237.69;5112140;28;19927;-55
2021/08/17 03:22:32;;;;;;;;;;;;;;;35.39;15.98;94236.13;5114481;28;19935;-54
2021/08/17 03:24:59;;;;;;;;;;;;;;;35.54;15.75;94250.66;5115146;28;19916;-54
2021/08/17 03:27:25;;;;;;;;;;;;;;;35.33;15.93;94243.34;5115012;28;19919;-54
2021/08/17 03:29:52;;;;;;;;;;;;;;;35.12;16.27;94244.16;5112095;28;20023;-54
2021/08/17 03:32:19;;;;;;;;;;;;;;;35.19;16.23;94236.50;5112002;28;19919;-56
2021/08/17 03:34:46;;;;;;;;;;;;;;;35.37;16.10;94235.81;5102812;28;19932;-57
2021/08/17 03:37:13;;;;;;;;;;;;;;;35.67;15.70;94239.69;5113216;28;20290;-55
2021/08/17 03:39:40;;;;;;;;;;;;;;;35.42;15.54;94243.41;5114937;28;19926;-61
2021/08/17 03:42:06;;;;;;;;;;;;;;;35.86;15.22;94237.75;5115820;28;19949;-54
2021/08/17 03:44:34;;;;;;;;;;;;;;;36.29;14.89;94244.09;5078575;27;19928;-55
2021/08/17 03:47:01;;;;;;;;;;;;;;;36.47;14.98;94241.41;5112557;28;19916;-54
2021/08/17 03:49:28;;;;;;;;;;;;;;;36.77;14.98;94241.63;5111916;28;19926;-56
2021/08/17 03:51:55;;;;;;;;;;;;;;;36.45;15.25;94241.09;5091603;28;20231;-53
2021/08/17 03:54:22;;;;;;;;;;;;;;;36.54;14.96;94240.31;5077464;28;19924;-55
2021/08/17 03:56:48;;;;;;;;;;;;;;;36.41;14.87;94240.47;5094066;28;19928;-53
2021/08/17 03:59:15;;;;;;;;;;;;;;;36.60;14.92;94243.94;5114713;28;20302;-53
2021/08/17 04:01:42;;;;;;;;;;;;;;;36.44;15.21;94242.31;5115477;28;19920;-53
2021/08/17 04:04:09;;;;;;;;;;;;;;;35.75;15.79;94248.28;5113247;28;19916;-57
2021/08/17 04:06:36;;;;;;;;;;;;;;;35.61;15.31;94254.28;5104995;28;19935;-48
2021/08/17 04:09:03;;;;;;;;;;;;;;;35.59;15.68;94245.84;5076305;28;19921;-47
2021/08/17 04:11:30;;;;;;;;;;;;;;;34.68;16.47;94238.81;5075925;28;20326;-56
2021/08/17 04:13:56;;;;;;;;;;;;;;;34.53;16.48;94240.53;5092402;28;19929;-55
2021/08/17 04:16:23;;;;;;;;;;;;;;;34.45;16.86;94239.28;5079129;28;19925;-55
2021/08/17 04:18:50;;;;;;;;;;;;;;;34.73;16.47;94245.63;5077193;28;20338;-57
2021/08/17 04:21:17;;;;;;;;;;;;;;;34.68;16.82;94246.97;5075346;28;19931;-45
2021/08/17 04:23:44;;;;;;;;;;;;;;;36.45;14.93;94246.53;5079544;28;19924;-55
2021/08/17 04:26:11;;;;;;;;;;;;;;;36.94;14.73;94256.41;5091226;28;19920;-56
2021/08/17 04:28:38;;;;;;;;;;;;;;;36.01;14.71;94249.56;5072122;28;19920;-68
2021/08/17 04:31:04;;;;;;;;;;;;;;;35.50;15.50;94244.63;5071794;28;19928;-53
2021/08/17 04:33:31;;;;;;;;;;;;;;;35.42;16.10;94237.97;5072203;28;20242;-48
2021/08/17 04:35:58;;;;;;;;;;;;;;;35.30;16.77;94246.94;5088277;28;20272;-43
2021/08/17 04:38:25;;;;;;;;;;;;;;;35.25;16.66;94247.53;5097077;28;19920;-48
2021/08/17 04:40:52;;;;;;;;;;;;;;;35.24;16.84;94254.19;5117887;28;20314;-58
2021/08/17 04:43:19;;;;;;;;;;;;;;;35.03;16.71;94253.03;5118920;28;19920;-52
2021/08/17 04:45:47;;;;;;;;;;;;;;;35.23;16.96;94249.94;5104762;28;19924;-56
2021/08/17 04:48:13;;;;;;;;;;;;;;;35.16;17.05;94252.94;5119382;28;19919;-60
2021/08/17 04:50:40;;;;;;;;;;;;;;;35.53;17.26;94243.72;5118991;28;19920;-62
2021/08/17 04:53:07;;;;;;;;;;;;;;;35.34;17.07;94244.88;5119469;28;19922;-61
2021/08/17 04:55:34;;;;;;;;;;;;;;;35.45;16.08;94247.94;5106555;28;19920;-68
2021/08/17 04:58:01;;;;;;;;;;;;;;;37.19;14.93;94245.13;5098249;28;19916;-66
2021/08/17 05:00:28;;;;;;;;;;;;;;;38.09;14.11;94255.25;5081380;28;19927;-64
2021/08/17 05:02:55;;;;;;;;;;;;;;;38.48;14.08;94245.06;5108895;28;20268;-68
2021/08/17 05:05:22;;;;;;;;;;;;;;;38.68;13.35;94247.19;5099810;28;20307;-61
2021/08/17 05:07:51;;;;;;;;;;;;;;;38.82;13.16;94240.97;5097787;28;19916;-68
2021/08/17 05:10:19;;;;;;;;;;;;;;;38.92;12.96;94245.09;5097311;28;19916;-65
2021/08/17 05:12:47;;;;;;;;;;;;;;;39.16;13.16;94245.75;5103005;28;19916;-65
2021/08/17 05:15:14;;;;;;;;;;;;;;;39.44;12.65;94248.13;5104461;28;19924;-67
2021/08/17 05:17:41;;;;;;;;;;;;;;;39.43;12.53;94243.91;5097919;28;19920;-68
2021/08/17 05:20:09;;;;;;;;;;;;;;;39.19;12.86;94249.53;5114739;28;20228;-67
2021/08/17 05:22:36;;;;;;;;;;;;;;;39.48;12.45;94248.69;5098413;28;19923;-64
2021/08/17 05:25:03;;;;;;;;;;;;;;;39.43;12.43;94249.38;5091385;28;19920;-67
2021/08/17 05:27:30;;;;;;;;;;;;;;;39.84;12.27;94255.66;5093345;28;19923;-67
2021/08/17 05:29:57;;;;;;;;;;;;;;;39.69;12.25;94254.97;5098308;28;19916;-66
2021/08/17 05:32:23;;;;;;;;;;;;;;;39.84;12.13;94255.66;5108828;28;19916;-59
2021/08/17 05:34:50;;;;;;;;;;;;;;;39.43;12.40;94254.84;5118130;28;20333;-65
2021/08/17 05:37:17;;;;;;;;;;;;;;;39.33;12.65;94258.94;5103889;28;20325;-68
2021/08/17 05:39:44;;;;;;;;;;;;;;;39.84;12.36;94261.16;5098319;28;20326;-67
2021/08/17 05:42:11;;;;;;;;;;;;;;;39.65;12.60;94266.13;5098161;28;20258;-66
2021/08/17 05:44:38;;;;;;;;;;;;;;;39.88;12.49;94255.47;5118538;28;20250;-68
2021/08/17 05:47:05;;;;;;;;;;;;;;;39.94;12.34;94259.00;5105497;28;20424;-69
2021/08/17 05:49:32;;;;;;;;;;;;;;;39.94;12.36;94268.00;5112398;28;19924;-67
2021/08/17 05:51:59;;;;;;;;;;;;;;;39.85;12.30;94265.38;5098063;28;20275;-68
2021/08/17 05:54:25;;;;;;;;;;;;;;;40.03;12.35;94259.63;5107515;28;19920;-65
2021/08/17 05:56:52;;;;;;;;;;;;;;;39.56;12.75;94258.03;5087527;28;19927;-65
2021/08/17 05:59:19;;;;;;;;;;;;;;;39.70;12.45;94268.16;5096274;28;19920;-66
2021/08/17 06:01:46;;;;;;;;;;;;;;;40.02;12.32;94268.34;5117943;28;19919;-61
2021/08/17 06:04:13;;;;;;;;;;;;;;;40.41;12.16;94257.09;5118151;28;19919;-68
2021/08/17 06:06:40;;;;;;;;;;;;;;;40.35;11.97;94262.50;5109359;28;19923;-68
2021/08/17 06:09:06;;;;;;;;;;;;;;;40.01;12.04;94253.91;5096887;28;20234;-66
2021/08/17 06:11:33;;;;;;;;;;;;;;;40.10;11.92;94255.75;5096984;28;19916;-68
2021/08/17 06:14:00;;;;;;;;;;;;;;;40.09;11.96;94248.78;5117594;28;19924;-68
2021/08/17 06:16:27;;;;;;;;;;;;;;;40.32;11.83;94258.72;5116688;28;19931;-67
2021/08/17 06:18:54;;;;;;;;;;;;;;;40.56;11.72;94255.75;5117839;28;19927;-67
2021/08/17 06:21:21;;;;;;;;;;;;;;;40.70;11.57;94251.41;5106445;28;20299;-63
2021/08/17 06:23:48;;;;;;;;;;;;;;;40.53;11.58;94253.22;5097538;28;19920;-63
2021/08/17 06:26:15;;;;;;;;;;;;;;;40.59;11.57;94245.81;5096548;28;19916;-66
2021/08/17 06:28:42;;;;;;;;;;;;;;;40.80;11.38;94250.03;5096891;28;19920;-64
2021/08/17 06:31:09;;;;;;;;;;;;;;;40.07;12.03;94245.75;5096828;28;20226;-68
2021/08/17 06:33:36;;;;;;;;;;;;;;;40.26;11.95;94246.97;5117658;28;20237;-68
2021/08/17 06:36:03;;;;;;;;;;;;;;;40.03;11.70;94243.22;5115309;28;19928;-64
2021/08/17 06:38:29;;;;;;;;;;;;;;;39.96;11.89;94240.91;5097170;28;19916;-69
2021/08/17 06:40:56;;;;;;;;;;;;;;;39.84;12.19;94243.97;5105103;28;19923;-60
2021/08/17 06:43:23;;;;;;;;;;;;;;;40.32;11.89;94238.81;5106055;28;19927;-69
2021/08/17 06:45:50;;;;;;;;;;;;;;;40.63;11.19;94238.16;5116726;28;19916;-64
2021/08/17 06:48:17;;;;;;;;;;;;;;;40.19;11.36;94232.94;5096803;28;20277;-68
2021/08/17 06:50:44;;;;;;;;;;;;;;;40.52;11.37;94230.56;5096541;28;20310;-68
2021/08/17 06:53:11;;;;;;;;;;;;;;;40.46;11.36;94231.75;5117405;28;19919;-68
2021/08/17 06:55:37;;;;;;;;;;;;;;;40.48;11.59;94240.25;5116625;28;19927;-68
2021/08/17 06:58:06;;;;;;;;;;;;;;;40.62;11.57;94233.91;5115591;28;19916;-58
2021/08/17 07:00:33;;;;;;;;;;;;;;;41.01;11.40;94236.25;5115723;28;19933;-68
2021/08/17 07:03:00;;;;;;;;;;;;;;;40.65;11.64;94221.97;5116951;28;19920;-63
2021/08/17 07:05:27;;;;;;;;;;;;;;;41.20;11.26;94226.41;5117230;28;19923;-68
2021/08/17 07:07:54;;;;;;;;;;;;;;;40.83;11.71;94238.09;5116749;28;19923;-66
2021/08/17 07:10:20;;;;;;;;;;;;;;;41.23;11.12;94233.69;5115385;28;19915;-69
2021/08/17 07:12:47;;;;;;;;;;;;;;;40.90;11.43;94229.44;5116139;28;19928;-64
2021/08/17 07:15:14;;;;;;;;;;;;;;;41.16;11.41;94225.91;5116463;28;19924;-68
2021/08/17 07:17:41;;;;;;;;;;;;;;;41.12;11.59;94230.81;5112789;28;19935;-68
2021/08/17 07:20:08;;;;;;;;;;;;;;;41.51;11.30;94234.59;5115166;28;19916;-68
2021/08/17 07:22:35;;;;;;;;;;;;;;;41.69;11.39;94232.72;5077917;28;20323;-68
2021/08/17 07:25:02;;;;;;;;;;;;;;;41.51;10.97;94233.84;5075850;28;19916;-69
2021/08/17 07:27:29;;;;;;;;;;;;;;;41.57;11.17;94232.63;5076356;28;20338;-69
2021/08/17 07:29:56;;;;;;;;;;;;;;;42.84;10.43;94226.56;5095689;28;20329;-69
2021/08/17 07:32:22;;;;;;;;;;;;;;;42.97;10.30;94229.59;5106571;28;19926;-68
2021/08/17 07:34:49;;;;;;;;;;;;;;;42.83;10.40;94230.56;5115245;28;19923;-70
2021/08/17 07:37:16;;;;;;;;;;;;;;;43.43;10.09;94231.06;5115487;28;19926;-70
2021/08/17 07:39:43;;;;;;;;;;;;;;;43.24;10.39;94234.31;5095613;28;19920;-61
2021/08/17 07:42:10;;;;;;;;;;;;;;;43.02;10.58;94231.59;5077954;28;20283;-69
2021/08/17 07:44:36;;;;;;;;;;;;;;;42.86;10.83;94229.56;5110593;28;19924;-69
2021/08/17 07:47:03;;;;;;;;;;;;;;;42.68;11.16;94230.78;5094194;28;19951;-68
2021/08/17 07:49:30;;;;;;;;;;;;;;;42.34;11.61;94235.47;5094000;28;19916;-68
2021/08/17 07:51:57;;;;;;;;;;;;;;;42.77;11.33;94238.81;5095366;28;19916;-68
2021/08/17 07:54:24;;;;;;;;;;;;;;;43.24;10.84;94226.06;5116000;28;20375;-63
2021/08/17 07:56:52;;;;;;;;;;;;;;;42.87;11.14;94231.06;5115813;28;19927;-61
2021/08/17 07:59:19;;;;;;;;;;;;;;;42.93;10.65;94224.34;5114193;28;19927;-64
2021/08/17 08:01:46;;;;;;;;;;;;;;;42.92;11.41;94230.34;5105356;28;19923;-62
2021/08/17 08:04:13;;;;;;;;;;;;;;;43.26;11.12;94215.31;5080775;28;19927;-69
2021/08/17 08:06:40;;;;;;;;;;;;;;;43.06;10.77;94215.59;5094776;28;19927;-69
2021/08/17 08:09:07;;;;;;;;;;;;;;;43.47;10.86;94220.56;5095128;28;19920;-70
2021/08/17 08:11:34;;;;;;;;;;;;;;;43.33;10.69;94225.81;5095094;28;19924;-70
2021/08/17 08:14:00;;;;;;;;;;;;;;;43.33;10.58;94217.56;5109384;28;19932;-70
2021/08/17 08:16:27;;;;;;;;;;;;;;;43.35;10.65;94215.06;5101494;28;19928;-69
2021/08/17 08:18:54;;;;;;;;;;;;;;;43.33;11.10;94214.81;5115324;28;19923;-70
2021/08/17 08:21:21;;;;;;;;;;;;;;;43.67;10.89;94206.47;5111949;28;20241;-70
2021/08/17 08:23:48;;;;;;;;;;;;;;;43.61;10.67;94208.50;5074102;28;19916;-70
2021/08/17 08:26:15;;;;;;;;;;;;;;;43.54;10.50;94203.53;5085801;28;19943;-70
2021/08/17 08:28:42;;;;;;;;;;;;;;;43.67;10.89;94206.47;5101143;28;19917;-70
2021/08/17 08:31:08;;;;;;;;;;;;;;;43.60;10.80;94201.50;5095485;28;19923;-70
2021/08/17 08:33:35;;;;;;;;;;;;;;;43.58;10.59;94193.00;5115508;28;20340;-70
2021/08/17 08:36:02;;;;;;;;;;;;;;;43.63;10.79;94200.47;5105049;28;19916;-70
2021/08/17 08:38:29;;;;;;;;;;;;;;;43.66;10.30;94204.97;5094686;28;19947;-71
2021/08/17 08:40:56;;;;;;;;;;;;;;;43.45;10.53;94195.53;5094275;28;19927;-70
2021/08/17 08:43:24;;;;;;;;;;;;;;;43.73;10.65;94193.47;5104585;28;20163;-48
2021/08/17 08:45:51;;;;;;;;;;;;;;;43.97;10.65;94190.84;5107314;28;19920;-57
2021/08/17 08:48:20;;;;;;;;;;;;;;;44.01;10.64;94187.09;5114854;28;19916;-57
2021/08/17 08:50:46;;;;;;;;;;;;;;;43.69;10.61;94188.22;5114537;28;19923;-60
2021/08/17 08:53:13;;;;;;;;;;;;;;;43.61;10.55;94175.47;5115384;28;19930;-60
2021/08/17 08:55:40;;;;;;;;;;;;;;;43.79;10.65;94183.19;5108905;28;19927;-58
2021/08/17 08:58:07;;;;;;;;;;;;;;;44.11;10.30;94171.78;5113691;28;20333;-58
2021/08/17 09:00:34;;;;;;;;;;;;;;;44.14;10.13;94181.78;5115217;28;20306;-60
2021/08/17 09:03:01;;;;;;;;;;;;;;;43.88;10.37;94169.13;5114141;28;19920;-58
2021/08/17 09:05:27;;;;;;;;;;;;;;;44.04;10.30;94166.81;5111078;28;19920;-57
2021/08/17 09:07:56;;;;;;;;;;;;;;;44.22;10.27;94164.19;5114996;28;20199;-58
2021/08/17 09:10:24;;;;;;;;;;;;;;;44.24;10.11;94160.94;5114642;28;19916;-58
2021/08/17 09:12:52;;;;;;;;;;;;;;;44.65;10.46;94155.41;5114902;28;20241;-59
2021/08/17 09:15:20;;;;;;;;;;;;;;;44.34;10.79;94153.88;5112414;28;19924;-60
2021/08/17 09:18:04;;;;;;;;;;;;;;;44.41;10.44;94153.31;5114998;28;20258;-56
2021/08/17 09:20:33;;;;;;;;;;;;;;;44.27;10.75;94157.19;5114708;28;19916;-58
2021/08/17 09:23:18;;;;;;;;;;;;;;;44.21;10.38;94153.69;5118100;28;20349;-57
2021/08/17 09:25:44;;;;;;;;;;;;;;;43.76;11.28;94156.69;5118047;28;19920;-58
2021/08/17 09:28:30;;;;;;;;;;;;;;;44.14;10.97;94146.00;5118278;28;19916;-59
2021/08/17 09:30:57;;;;;;;;;;;;;;;44.23;10.79;94140.16;5117928;28;19920;-60
2021/08/17 09:33:37;;;;;;;;;;;;;;;44.02;10.57;94147.28;5111721;28;19924;-58
2021/08/17 09:36:04;;;;;;;;;;;;;;;44.37;10.26;94147.34;5085799;28;19920;-62
2021/08/17 09:38:32;;;;;;;;;;;;;;;44.51;10.57;94149.03;5117231;28;19916;-59
2021/08/17 09:40:59;;;;;;;;;;;;;;;44.28;10.89;94145.66;5118909;28;19915;-55
2021/08/17 09:43:26;;;;;;;;;;;;;;;43.76;11.11;94142.94;5099290;28;19916;-59
2021/08/17 09:45:53;;;;;;;;;;;;;;;44.11;10.57;94141.50;5112114;28;19920;-54
2021/08/17 09:48:27;;;;;;;;;;;;;;;44.51;10.58;94138.00;5117388;28;19927;-57
2021/08/17 09:50:54;;;;;;;;;;;;;;;43.98;10.53;94134.56;5117877;28;19931;-58
2021/08/17 09:53:22;;;;;;;;;;;;;;;44.31;10.61;94135.63;5094063;28;19916;-59
2021/08/17 09:55:55;;;;;;;;;;;;;;;44.48;10.58;94133.50;5083643;28;19916;-58
2021/08/17 09:58:33;;;;;;;;;;;;;;;44.61;10.57;94134.91;5097333;28;19931;-57
2021/08/17 10:01:02;;;;;;;;;;;;;;;44.86;10.45;94133.72;5088668;28;19921;-59
2021/08/17 10:03:29;;;;;;;;;;;;;;;44.86;10.36;94139.22;5102232;28;19916;-56
2021/08/17 10:05:56;;;;;;;;;;;;;;;44.81;10.56;94137.25;5097638;28;19916;-55
2021/08/17 10:08:23;;;;;;;;;;;;;;;44.65;10.67;94132.63;5117324;28;20253;-59
2021/08/17 10:10:51;;;;;;;;;;;;;;;44.99;10.41;94130.31;5099841;28;19916;-57
2021/08/17 10:13:19;;;;;;;;;;;;;;;45.04;10.10;94124.75;5116697;28;19919;-55
2021/08/17 10:15:46;;;;;;;;;;;;;;;45.30;10.06;94126.28;5117437;28;20269;-60
2021/08/17 10:18:14;;;;;;;;;;;;;;;44.77;10.27;94121.00;5117581;28;19924;-56
2021/08/17 10:20:42;;;;;;;;;;;;;;;44.88;10.34;94120.16;5099829;28;20340;-56
2021/08/17 10:23:09;;;;;;;;;;;;;;;45.26;10.01;94117.50;5089844;28;19916;-56
2021/08/17 10:25:45;;;;;;;;;;;;;;;45.34;10.22;94115.69;5111729;28;19916;-56
2021/08/17 10:28:32;;;;;;;;;;;;;;;45.16;10.34;94114.34;5117376;28;19915;-55
2021/08/17 10:31:18;;;;;;;;;;;;;;;45.65;9.99;94106.78;5117545;28;19927;-56
2021/08/17 10:33:48;;;;;;;;;;;;;;;45.46;10.55;94112.25;5080040;28;19916;-56
2021/08/17 10:36:34;;;;;;;;;;;;;;;45.18;10.75;94111.81;5096636;28;20230;-56
2021/08/17 10:39:05;;;;;;;;;;;;;;;44.80;11.17;94105.44;5085827;28;19916;-55
2021/08/17 10:41:34;;;;;;;;;;;;;;;44.63;11.17;94104.81;5076705;28;19923;-57
2021/08/17 10:44:02;;;;;;;;;;;;;;;44.75;10.96;94103.44;5099992;28;19920;-57
2021/08/17 10:46:37;;;;;;;;;;;;;;;44.58;10.75;94098.84;5096027;28;19927;-55
2021/08/17 10:49:04;;;;;;;;;;;;;;;44.77;10.73;94092.69;5116587;28;19924;-56
2021/08/17 10:51:37;;;;;;;;;;;;;;;44.88;10.48;94089.81;5116401;28;19927;-57
2021/08/17 10:54:03;;;;;;;;;;;;;;;45.08;10.48;94089.38;5116842;28;19930;-55
2021/08/17 10:56:31;;;;;;;;;;;;;;;44.92;10.99;94076.50;5107228;28;19947;-70
2021/08/17 10:58:59;;;;;;;;;;;;;;;45.02;10.97;94080.38;5096034;28;19924;-73
2021/08/17 11:01:28;;;;;;;;;;;;;;;45.02;10.62;94083.16;5098293;28;19947;-73
2021/08/17 11:03:55;;;;;;;;;;;;;;;45.09;11.06;94077.06;5111994;28;19923;-73
2021/08/17 11:06:37;;;;;;;;;;;;;;;44.65;11.07;94069.97;5096384;28;19927;-73
2021/08/17 11:09:05;;;;;;;;;;;;;;;44.95;10.89;94069.94;5096347;28;19924;-72
2021/08/17 11:11:32;;;;;;;;;;;;;;;45.04;10.74;94066.09;5116754;28;19923;-72
2021/08/17 11:14:06;;;;;;;;;;;;;;;45.28;10.88;94068.09;5110820;28;19927;-72
2021/08/17 11:16:34;;;;;;;;;;;;;;;45.16;11.49;94062.69;5107894;28;19931;-72
2021/08/17 11:19:02;;;;;;;;;;;;;;;44.70;10.82;94060.16;5095208;28;19920;-72
2021/08/17 11:21:39;;;;;;;;;;;;;;;44.97;11.31;94048.13;5116754;28;19923;-72
2021/08/17 11:24:06;;;;;;;;;;;;;;;44.78;11.40;94050.06;5115898;28;19920;-72
2021/08/17 11:26:34;;;;;;;;;;;;;;;44.79;12.05;94046.06;5108134;28;19921;-72
2021/08/17 11:29:00;;;;;;;;;;;;;;;44.68;12.20;94040.63;5096259;28;19924;-71
2021/08/17 11:31:27;;;;;;;;;;;;;;;44.67;11.57;94047.41;5098277;28;20318;-55
2021/08/17 11:34:13;;;;;;;;;;;;;;;44.41;11.82;94045.88;5106319;28;19931;-56
2021/08/17 11:36:40;;;;;;;;;;;;;;;44.59;11.91;94042.47;5095818;28;19927;-61
2021/08/17 11:39:27;;;;;;;;;;;;;;;44.97;11.70;94034.31;5096092;28;19920;-55
2021/08/17 11:41:54;;;;;;;;;;;;;;;44.89;11.64;94038.94;5116366;28;19920;-68
2021/08/17 11:44:21;;;;;;;;;;;;;;;45.02;11.74;94035.53;5108340;28;19931;-53
2021/08/17 11:46:48;;;;;;;;;;;;;;;44.66;11.69;94037.66;5094847;28;19916;-65
2021/08/17 11:49:24;;;;;;;;;;;;;;;44.62;11.12;94043.44;5083453;28;19920;-62
2021/08/17 11:52:01;;;;;;;;;;;;;;;44.61;11.60;94035.69;5075287;28;19923;-63
2021/08/17 11:54:28;;;;;;;;;;;;;;;44.48;11.20;94028.03;5082412;28;19920;-59
2021/08/17 11:56:56;;;;;;;;;;;;;;;44.68;11.07;94029.63;5094687;28;19931;-63
2021/08/17 11:59:22;;;;;;;;;;;;;;;44.61;11.16;94024.69;5095277;28;19927;-60
2021/08/17 12:01:59;;;;;;;;;;;;;;;44.66;11.12;94021.13;5101681;28;19923;-59
2021/08/17 12:04:35;;;;;;;;;;;;;;;44.93;11.11;94016.59;5107617;28;19923;-61
2021/08/17 12:07:05;;;;;;;;;;;;;;;44.84;10.99;94014.91;5095492;28;20295;-61
2021/08/17 12:09:42;;;;;;;;;;;;;;;44.88;11.24;94015.41;5095721;28;20606;-59
2021/08/17 12:12:10;;;;;;;;;;;;;;;45.06;11.03;94003.66;5115908;28;20294;-61
2021/08/17 12:14:37;;;;;;;;;;;;;;;45.12;10.92;94012.59;5082539;28;20212;-61
2021/08/17 12:17:05;;;;;;;;;;;;;;;45.12;10.94;94012.59;5093693;28;19931;-60
2021/08/17 12:19:33;;;;;;;;;;;;;;;44.98;10.88;94011.00;5095206;28;20314;-57
2021/08/17 12:22:00;;;;;;;;;;;;;;;44.65;11.18;94008.59;5094346;28;19916;-55
2021/08/17 12:24:29;;;;;;;;;;;;;;;45.05;11.04;93996.66;5115236;28;19920;-55
2021/08/17 12:27:03;;;;;;;;;;;;;;;44.95;10.93;93997.50;5101873;28;19923;-55
2021/08/17 12:29:40;;;;;;;;;;;;;;;45.06;11.08;93994.63;5074486;28;19917;-61
2021/08/17 12:32:20;;;;;;;;;;;;;;;44.76;11.02;93991.94;5103282;28;19920;-55
2021/08/17 12:34:49;;;;;;;;;;;;;;;44.80;10.89;93984.13;5115332;28;19916;-58
2021/08/17 12:37:26;;;;;;;;;;;;;;;44.71;10.83;93976.22;5114522;28;19924;-55
2021/08/17 12:39:54;;;;;;;;;;;;;;;44.83;10.90;93977.59;5114069;28;19922;-59
2021/08/17 12:42:21;;;;;;;;;;;;;;;44.91;10.86;93959.22;5115139;28;20233;-61
2021/08/17 12:44:49;;;;;;;;;;;;;;;45.02;10.75;93961.81;5114704;28;19930;-56
2021/08/17 12:47:19;;;;;;;;;;;;;;;44.88;10.70;93957.50;5114077;28;19916;-56
2021/08/17 12:49:47;;;;;;;;;;;;;;;44.85;10.62;93955.75;5114064;28;19922;-58
2021/08/17 12:52:20;;;;;;;;;;;;;;;45.13;10.45;93953.41;5113638;28;20309;-58